sensor_id;sensor_type;location;lat;lon;timestamp;pressure;altitude;pressure_sealevel;temperature
67966;BMP280;54749;47.850;9.002;2023-02-01T00:00:57;96801.91;;;3.31
67966;BMP280;54749;47.850;9.002;2023-02-01T00:03:26;96805.13;;;3.34
67966;BMP280;54749;47.850;9.002;2023-02-01T00:05:58;96800.13;;;3.34
67966;BMP280;54749;47.850;9.002;2023-02-01T00:08:25;96792.59;;;3.36
67966;BMP280;54749;47.850;9.002;2023-02-01T00:11:04;96793.31;;;3.38
67966;BMP280;54749;47.850;9.002;2023-02-01T00:13:33;96785.84;;;3.38
67966;BMP280;54749;47.850;9.002;2023-02-01T00:16:08;96785.84;;;3.38
67966;BMP280;54749;47.850;9.002;2023-02-01T00:18:35;96780.13;;;3.34
67966;BMP280;54749;47.850;9.002;2023-02-01T00:21:03;96781.91;;;3.32
67966;BMP280;54749;47.850;9.002;2023-02-01T00:23:35;96771.25;;;3.28
67966;BMP280;54749;47.850;9.002;2023-02-01T00:26:06;96778.91;;;3.23
67966;BMP280;54749;47.850;9.002;2023-02-01T00:28:33;96770.59;;;3.23
67966;BMP280;54749;47.850;9.002;2023-02-01T00:31:03;96774.75;;;3.22
67966;BMP280;54749;47.850;9.002;2023-02-01T00:33:31;96781.38;;;3.23
67966;BMP280;54749;47.850;9.002;2023-02-01T00:36:01;96782.22;;;3.24
67966;BMP280;54749;47.850;9.002;2023-02-01T00:38:28;96773.09;;;3.23
67966;BMP280;54749;47.850;9.002;2023-02-01T00:41:04;96773.97;;;3.20
67966;BMP280;54749;47.850;9.002;2023-02-01T00:43:31;96778.13;;;3.21
67966;BMP280;54749;47.850;9.002;2023-02-01T00:45:59;96779.75;;;3.22
67966;BMP280;54749;47.850;9.002;2023-02-01T00:48:27;96774.75;;;3.22
67966;BMP280;54749;47.850;9.002;2023-02-01T00:50:59;96786.38;;;3.23
67966;BMP280;54749;47.850;9.002;2023-02-01T00:53:26;96784.63;;;3.25
67966;BMP280;54749;47.850;9.002;2023-02-01T00:55:53;96776.31;;;3.25
67966;BMP280;54749;47.850;9.002;2023-02-01T00:58:20;96769.66;;;3.25
67966;BMP280;54749;47.850;9.002;2023-02-01T01:00:47;96777.91;;;3.27
67966;BMP280;54749;47.850;9.002;2023-02-01T01:03:16;96779.56;;;3.28
67966;BMP280;54749;47.850;9.002;2023-02-01T01:05:47;96767.94;;;3.27
67966;BMP280;54749;47.850;9.002;2023-02-01T01:08:15;96787.78;;;3.30
67966;BMP280;54749;47.850;9.002;2023-02-01T01:10:43;96778.75;;;3.28
67966;BMP280;54749;47.850;9.002;2023-02-01T01:13:10;96790.28;;;3.30
67966;BMP280;54749;47.850;9.002;2023-02-01T01:15:39;96781.94;;;3.31
67966;BMP280;54749;47.850;9.002;2023-02-01T01:18:06;96774.41;;;3.32
67966;BMP280;54749;47.850;9.002;2023-02-01T01:20:35;96775.16;;;3.34
67966;BMP280;54749;47.850;9.002;2023-02-01T01:23:03;96782.72;;;3.33
67966;BMP280;54749;47.850;9.002;2023-02-01T01:25:31;96776.06;;;3.32
67966;BMP280;54749;47.850;9.002;2023-02-01T01:27:58;96777.81;;;3.30
67966;BMP280;54749;47.850;9.002;2023-02-01T01:30:25;96779.44;;;3.31
67966;BMP280;54749;47.850;9.002;2023-02-01T01:32:52;96771.16;;;3.29
67966;BMP280;54749;47.850;9.002;2023-02-01T01:35:19;96770.31;;;3.30
67966;BMP280;54749;47.850;9.002;2023-02-01T01:37:46;96761.19;;;3.29
67966;BMP280;54749;47.850;9.002;2023-02-01T01:40:14;96757.00;;;3.30
67966;BMP280;54749;47.850;9.002;2023-02-01T01:42:42;96748.75;;;3.28
67966;BMP280;54749;47.850;9.002;2023-02-01T01:45:27;96756.25;;;3.28
67966;BMP280;54749;47.850;9.002;2023-02-01T01:47:56;96753.81;;;3.26
67966;BMP280;54749;47.850;9.002;2023-02-01T01:50:29;96739.75;;;3.24
67966;BMP280;54749;47.850;9.002;2023-02-01T01:52:59;96728.16;;;3.21
67966;BMP280;54749;47.850;9.002;2023-02-01T01:55:31;96723.19;;;3.21
67966;BMP280;54749;47.850;9.002;2023-02-01T01:58:02;96722.47;;;3.18
67966;BMP280;54749;47.850;9.002;2023-02-01T02:00:31;96723.50;;;3.13
67966;BMP280;54749;47.850;9.002;2023-02-01T02:03:00;96716.13;;;3.10
67966;BMP280;54749;47.850;9.002;2023-02-01T02:05:30;96721.94;;;3.10
67966;BMP280;54749;47.850;9.002;2023-02-01T02:07:59;96716.28;;;3.05
67966;BMP280;54749;47.850;9.002;2023-02-01T02:10:28;96711.34;;;3.04
67966;BMP280;54749;47.850;9.002;2023-02-01T02:13:14;96723.00;;;3.03
67966;BMP280;54749;47.850;9.002;2023-02-01T02:15:50;96722.31;;;3.00
67966;BMP280;54749;47.850;9.002;2023-02-01T02:18:45;96729.91;;;2.97
67966;BMP280;54749;47.850;9.002;2023-02-01T02:21:30;96734.25;;;2.92
67966;BMP280;54749;47.850;9.002;2023-02-01T02:24:09;96736.88;;;2.88
67966;BMP280;54749;47.850;9.002;2023-02-01T02:27:18;96733.84;;;2.80
67966;BMP280;54749;47.850;9.002;2023-02-01T02:35:30;96711.84;;;2.67
67966;BMP280;54749;47.850;9.002;2023-02-01T02:38:15;96712.00;;;2.62
67966;BMP280;54749;47.850;9.002;2023-02-01T02:43:20;96715.06;;;2.46
67966;BMP280;54749;47.850;9.002;2023-02-01T02:46:28;96717.03;;;2.37
67966;BMP280;54749;47.850;9.002;2023-02-01T02:49:32;96699.06;;;2.28
67966;BMP280;54749;47.850;9.002;2023-02-01T02:52:07;96709.19;;;2.24
67966;BMP280;54749;47.850;9.002;2023-02-01T02:54:56;96710.06;;;2.21
67966;BMP280;54749;47.850;9.002;2023-02-01T02:57:30;96711.78;;;2.21
67966;BMP280;54749;47.850;9.002;2023-02-01T03:00:21;96713.34;;;2.23
67966;BMP280;54749;47.850;9.002;2023-02-01T03:03:08;96707.41;;;2.27
67966;BMP280;54749;47.850;9.002;2023-02-01T03:05:54;96716.41;;;2.31
67966;BMP280;54749;47.850;9.002;2023-02-01T03:08:22;96718.84;;;2.32
67966;BMP280;54749;47.850;9.002;2023-02-01T03:10:54;96707.91;;;2.36
67966;BMP280;54749;47.850;9.002;2023-02-01T03:13:31;96709.34;;;2.43
67966;BMP280;54749;47.850;9.002;2023-02-01T03:16:06;96700.03;;;2.48
67966;BMP280;54749;47.850;9.002;2023-02-01T03:18:36;96703.97;;;2.55
67966;BMP280;54749;47.850;9.002;2023-02-01T03:21:10;96698.75;;;2.61
67966;BMP280;54749;47.850;9.002;2023-02-01T03:23:41;96701.91;;;2.65
67966;BMP280;54749;47.850;9.002;2023-02-01T03:26:12;96704.31;;;2.68
67966;BMP280;54749;47.850;9.002;2023-02-01T03:28:48;96698.50;;;2.68
67966;BMP280;54749;47.850;9.002;2023-02-01T03:31:17;96691.78;;;2.70
67966;BMP280;54749;47.850;9.002;2023-02-01T03:33:44;96700.06;;;2.70
67966;BMP280;54749;47.850;9.002;2023-02-01T03:36:31;96694.25;;;2.70
67966;BMP280;54749;47.850;9.002;2023-02-01T03:39:09;96689.22;;;2.71
67966;BMP280;54749;47.850;9.002;2023-02-01T03:41:51;96687.72;;;2.67
67966;BMP280;54749;47.850;9.002;2023-02-01T03:44:30;96690.25;;;2.66
67966;BMP280;54749;47.850;9.002;2023-02-01T03:47:02;96701.09;;;2.65
67966;BMP280;54749;47.850;9.002;2023-02-01T03:49:34;96703.50;;;2.68
67966;BMP280;54749;47.850;9.002;2023-02-01T03:52:06;96700.13;;;2.69
67966;BMP280;54749;47.850;9.002;2023-02-01T03:54:34;96701.63;;;2.73
67966;BMP280;54749;47.850;9.002;2023-02-01T03:57:07;96709.91;;;2.75
67966;BMP280;54749;47.850;9.002;2023-02-01T03:59:41;96714.78;;;2.78
67966;BMP280;54749;47.850;9.002;2023-02-01T04:02:09;96712.19;;;2.80
67966;BMP280;54749;47.850;9.002;2023-02-01T04:04:36;96722.06;;;2.83
67966;BMP280;54749;47.850;9.002;2023-02-01T04:07:04;96721.13;;;2.86
67966;BMP280;54749;47.850;9.002;2023-02-01T04:09:31;96722.72;;;2.88
67966;BMP280;54749;47.850;9.002;2023-02-01T04:11:58;96726.78;;;2.91
67966;BMP280;54749;47.850;9.002;2023-02-01T04:14:25;96719.25;;;2.92
67966;BMP280;54749;47.850;9.002;2023-02-01T04:16:52;96720.13;;;2.91
67966;BMP280;54749;47.850;9.002;2023-02-01T04:19:20;96726.78;;;2.91
67966;BMP280;54749;47.850;9.002;2023-02-01T04:21:47;96725.97;;;2.90
67966;BMP280;54749;47.850;9.002;2023-02-01T04:24:13;96745.19;;;2.88
67966;BMP280;54749;47.850;9.002;2023-02-01T04:26:41;96756.03;;;2.87
67966;BMP280;54749;47.850;9.002;2023-02-01T04:29:09;96751.09;;;2.86
67966;BMP280;54749;47.850;9.002;2023-02-01T04:31:36;96763.63;;;2.84
67966;BMP280;54749;47.850;9.002;2023-02-01T04:34:03;96771.06;;;2.86
67966;BMP280;54749;47.850;9.002;2023-02-01T04:36:30;96782.75;;;2.85
67966;BMP280;54749;47.850;9.002;2023-02-01T04:38:57;96775.19;;;2.87
67966;BMP280;54749;47.850;9.002;2023-02-01T04:41:24;96769.28;;;2.89
67966;BMP280;54749;47.850;9.002;2023-02-01T04:43:51;96773.31;;;2.93
67966;BMP280;54749;47.850;9.002;2023-02-01T04:46:19;96768.25;;;2.95
67966;BMP280;54749;47.850;9.002;2023-02-01T04:48:46;96761.66;;;2.94
67966;BMP280;54749;47.850;9.002;2023-02-01T04:51:14;96765.72;;;2.96
67966;BMP280;54749;47.850;9.002;2023-02-01T04:53:42;96770.59;;;2.99
67966;BMP280;54749;47.850;9.002;2023-02-01T04:56:09;96760.69;;;2.97
67966;BMP280;54749;47.850;9.002;2023-02-01T04:58:36;96754.88;;;2.97
67966;BMP280;54749;47.850;9.002;2023-02-01T05:01:04;96755.63;;;2.99
67966;BMP280;54749;47.850;9.002;2023-02-01T05:03:32;96753.13;;;2.99
67966;BMP280;54749;47.850;9.002;2023-02-01T05:06:00;96750.63;;;2.99
67966;BMP280;54749;47.850;9.002;2023-02-01T05:08:27;96736.47;;;2.99
67966;BMP280;54749;47.850;9.002;2023-02-01T05:10:56;96722.41;;;2.97
67966;BMP280;54749;47.850;9.002;2023-02-01T05:13:23;96729.88;;;2.98
67966;BMP280;54749;47.850;9.002;2023-02-01T05:16:08;96719.81;;;3.00
67966;BMP280;54749;47.850;9.002;2023-02-01T05:18:35;96725.72;;;2.97
67966;BMP280;54749;47.850;9.002;2023-02-01T05:21:03;96727.28;;;3.00
67966;BMP280;54749;47.850;9.002;2023-02-01T05:23:30;96732.19;;;3.03
67966;BMP280;54749;47.850;9.002;2023-02-01T05:26:01;96737.09;;;3.06
67966;BMP280;54749;47.850;9.002;2023-02-01T05:28:28;96738.72;;;3.07
67966;BMP280;54749;47.850;9.002;2023-02-01T05:30:55;96732.81;;;3.08
67966;BMP280;54749;47.850;9.002;2023-02-01T05:33:22;96732.81;;;3.08
67966;BMP280;54749;47.850;9.002;2023-02-01T05:35:49;96745.31;;;3.08
67966;BMP280;54749;47.850;9.002;2023-02-01T05:38:17;96742.06;;;3.06
67966;BMP280;54749;47.850;9.002;2023-02-01T05:40:44;96742.06;;;3.06
67966;BMP280;54749;47.850;9.002;2023-02-01T05:43:16;96744.56;;;3.06
67966;BMP280;54749;47.850;9.002;2023-02-01T05:45:43;96727.09;;;3.06
67966;BMP280;54749;47.850;9.002;2023-02-01T05:48:10;96725.44;;;3.05
67966;BMP280;54749;47.850;9.002;2023-02-01T05:50:37;96721.28;;;3.05
67966;BMP280;54749;47.850;9.002;2023-02-01T05:53:08;96728.72;;;3.07
67966;BMP280;54749;47.850;9.002;2023-02-01T05:55:36;96722.09;;;3.06
67966;BMP280;54749;47.850;9.002;2023-02-01T05:58:03;96726.16;;;3.08
67966;BMP280;54749;47.850;9.002;2023-02-01T06:00:31;96731.97;;;3.09
67966;BMP280;54749;47.850;9.002;2023-02-01T06:02:58;96738.59;;;3.10
67966;BMP280;54749;47.850;9.002;2023-02-01T06:05:26;96746.91;;;3.10
67966;BMP280;54749;47.850;9.002;2023-02-01T06:07:53;96732.75;;;3.11
67966;BMP280;54749;47.850;9.002;2023-02-01T06:10:20;96739.38;;;3.12
67966;BMP280;54749;47.850;9.002;2023-02-01T06:12:47;96744.28;;;3.13
67966;BMP280;54749;47.850;9.002;2023-02-01T06:15:15;96750.09;;;3.14
67966;BMP280;54749;47.850;9.002;2023-02-01T06:17:43;96759.22;;;3.14
67966;BMP280;54749;47.850;9.002;2023-02-01T06:20:13;96762.59;;;3.14
67966;BMP280;54749;47.850;9.002;2023-02-01T06:22:40;96758.38;;;3.15
67966;BMP280;54749;47.850;9.002;2023-02-01T06:25:09;96766.59;;;3.17
67966;BMP280;54749;47.850;9.002;2023-02-01T06:27:37;96771.56;;;3.19
67966;BMP280;54749;47.850;9.002;2023-02-01T06:30:05;96769.81;;;3.21
67966;BMP280;54749;47.850;9.002;2023-02-01T06:32:33;96764.78;;;3.22
67966;BMP280;54749;47.850;9.002;2023-02-01T06:35:00;96765.72;;;3.20
67966;BMP280;54749;47.850;9.002;2023-02-01T06:37:27;96777.25;;;3.22
67966;BMP280;54749;47.850;9.002;2023-02-01T06:39:56;96778.94;;;3.22
67966;BMP280;54749;47.850;9.002;2023-02-01T06:42:23;96784.72;;;3.24
67966;BMP280;54749;47.850;9.002;2023-02-01T06:44:50;96778.91;;;3.23
67966;BMP280;54749;47.850;9.002;2023-02-01T06:47:17;96788.81;;;3.25
67966;BMP280;54749;47.850;9.002;2023-02-01T06:49:45;96790.41;;;3.27
67966;BMP280;54749;47.850;9.002;2023-02-01T06:52:12;96802.91;;;3.27
67966;BMP280;54749;47.850;9.002;2023-02-01T06:54:39;96807.78;;;3.30
67966;BMP280;54749;47.850;9.002;2023-02-01T06:57:06;96806.97;;;3.30
67966;BMP280;54749;47.850;9.002;2023-02-01T06:59:33;96805.22;;;3.32
67966;BMP280;54749;47.850;9.002;2023-02-01T07:02:00;96806.88;;;3.32
67966;BMP280;54749;47.850;9.002;2023-02-01T07:04:27;96812.69;;;3.33
67966;BMP280;54749;47.850;9.002;2023-02-01T07:06:54;96813.47;;;3.33
67966;BMP280;54749;47.850;9.002;2023-02-01T07:09:21;96807.69;;;3.33
67966;BMP280;54749;47.850;9.002;2023-02-01T07:11:48;96817.56;;;3.36
67966;BMP280;54749;47.850;9.002;2023-02-01T07:14:15;96810.81;;;3.38
67966;BMP280;54749;47.850;9.002;2023-02-01T07:16:42;96807.53;;;3.37
67966;BMP280;54749;47.850;9.002;2023-02-01T07:19:09;96802.56;;;3.36
67966;BMP280;54749;47.850;9.002;2023-02-01T07:21:36;96803.47;;;3.33
67966;BMP280;54749;47.850;9.002;2023-02-01T07:24:04;96799.47;;;3.30
67966;BMP280;54749;47.850;9.002;2023-02-01T07:26:30;96811.13;;;3.29
67966;BMP280;54749;47.850;9.002;2023-02-01T07:28:58;96800.28;;;3.30
67966;BMP280;54749;47.850;9.002;2023-02-01T07:31:25;96796.97;;;3.30
67966;BMP280;54749;47.850;9.002;2023-02-01T07:33:53;96794.44;;;3.31
67966;BMP280;54749;47.850;9.002;2023-02-01T07:36:21;96805.81;;;3.38
67966;BMP280;54749;47.850;9.002;2023-02-01T07:38:49;96802.56;;;3.36
67966;BMP280;54749;47.850;9.002;2023-02-01T07:41:17;96802.38;;;3.42
67966;BMP280;54749;47.850;9.002;2023-02-01T07:43:44;96804.88;;;3.42
67966;BMP280;54749;47.850;9.002;2023-02-01T07:46:12;96797.47;;;3.39
67966;BMP280;54749;47.850;9.002;2023-02-01T07:48:39;96775.91;;;3.36
67966;BMP280;54749;47.850;9.002;2023-02-01T07:51:09;96773.41;;;3.36
67966;BMP280;54749;47.850;9.002;2023-02-01T07:53:38;96785.09;;;3.36
67966;BMP280;54749;47.850;9.002;2023-02-01T07:56:10;96788.41;;;3.36
67966;BMP280;54749;47.850;9.002;2023-02-01T07:58:38;96788.34;;;3.38
67966;BMP280;54749;47.850;9.002;2023-02-01T08:01:05;96804.09;;;3.40
67966;BMP280;54749;47.850;9.002;2023-02-01T08:03:48;96810.66;;;3.42
67966;BMP280;54749;47.850;9.002;2023-02-01T08:06:16;96809.75;;;3.45
67966;BMP280;54749;47.850;9.002;2023-02-01T08:08:43;96820.59;;;3.44
67966;BMP280;54749;47.850;9.002;2023-02-01T08:11:12;96796.41;;;3.46
67966;BMP280;54749;47.850;9.002;2023-02-01T08:13:40;96803.97;;;3.43
67966;BMP280;54749;47.850;9.002;2023-02-01T08:16:09;96809.72;;;3.46
67966;BMP280;54749;47.850;9.002;2023-02-01T08:18:38;96803.66;;;3.51
67966;BMP280;54749;47.850;9.002;2023-02-01T08:21:13;96806.28;;;3.49
67966;BMP280;54749;47.850;9.002;2023-02-01T08:23:41;96799.72;;;3.46
67966;BMP280;54749;47.850;9.002;2023-02-01T08:28:44;96804.88;;;3.42
67966;BMP280;54749;47.850;9.002;2023-02-01T08:31:13;96814.97;;;3.61
67966;BMP280;54749;47.850;9.002;2023-02-01T08:33:48;96814.75;;;3.67
67966;BMP280;54749;47.850;9.002;2023-02-01T08:36:16;96822.91;;;3.72
67966;BMP280;54749;47.850;9.002;2023-02-01T08:38:44;96828.88;;;3.68
67966;BMP280;54749;47.850;9.002;2023-02-01T08:41:16;96829.84;;;3.64
67966;BMP280;54749;47.850;9.002;2023-02-01T08:43:44;96840.56;;;3.67
67966;BMP280;54749;47.850;9.002;2023-02-01T08:46:11;96840.63;;;3.66
67966;BMP280;54749;47.850;9.002;2023-02-01T08:48:38;96836.59;;;3.62
67966;BMP280;54749;47.850;9.002;2023-02-01T08:51:11;96844.09;;;3.62
67966;BMP280;54749;47.850;9.002;2023-02-01T08:53:39;96845.81;;;3.60
67966;BMP280;54749;47.850;9.002;2023-02-01T08:56:11;96849.38;;;3.55
67966;BMP280;54749;47.850;9.002;2023-02-01T08:58:39;96854.28;;;3.56
67966;BMP280;54749;47.850;9.002;2023-02-01T09:01:11;96868.47;;;3.56
67966;BMP280;54749;47.850;9.002;2023-02-01T09:03:40;96862.75;;;3.52
67966;BMP280;54749;47.850;9.002;2023-02-01T09:06:10;96864.53;;;3.50
67966;BMP280;54749;47.850;9.002;2023-02-01T09:08:38;96854.59;;;3.48
67966;BMP280;54749;47.850;9.002;2023-02-01T09:11:08;96850.59;;;3.44
67966;BMP280;54749;47.850;9.002;2023-02-01T09:13:37;96844.84;;;3.42
67966;BMP280;54749;47.850;9.002;2023-02-01T09:16:04;96837.34;;;3.42
67966;BMP280;54749;47.850;9.002;2023-02-01T09:18:31;96846.41;;;3.44
67966;BMP280;54749;47.850;9.002;2023-02-01T09:20:59;96839.56;;;3.49
67966;BMP280;54749;47.850;9.002;2023-02-01T09:23:26;96831.81;;;3.56
67966;BMP280;54749;47.850;9.002;2023-02-01T09:25:53;96830.75;;;3.63
67966;BMP280;54749;47.850;9.002;2023-02-01T09:28:20;96820.56;;;3.67
67966;BMP280;54749;47.850;9.002;2023-02-01T09:30:47;96833.53;;;3.77
67966;BMP280;54749;47.850;9.002;2023-02-01T09:33:14;96833.78;;;3.93
67966;BMP280;54749;47.850;9.002;2023-02-01T09:35:41;96839.94;;;4.06
67966;BMP280;54749;47.850;9.002;2023-02-01T09:38:08;96835.53;;;4.12
67966;BMP280;54749;47.850;9.002;2023-02-01T09:40:35;96836.84;;;4.20
67966;BMP280;54749;47.850;9.002;2023-02-01T09:43:15;96847.84;;;4.17
67966;BMP280;54749;47.850;9.002;2023-02-01T09:45:58;96843.63;;;4.19
67966;BMP280;54749;47.850;9.002;2023-02-01T09:48:30;96857.31;;;4.31
67966;BMP280;54749;47.850;9.002;2023-02-01T09:50:59;96865.38;;;4.37
67966;BMP280;54749;47.850;9.002;2023-02-01T09:53:41;96863.44;;;4.45
67966;BMP280;54749;47.850;9.002;2023-02-01T09:56:13;96862.19;;;4.55
67966;BMP280;54749;47.850;9.002;2023-02-01T09:58:48;96847.13;;;4.56
67966;BMP280;54749;47.850;9.002;2023-02-01T10:01:20;96849.44;;;4.61
67966;BMP280;54749;47.850;9.002;2023-02-01T10:03:50;96843.22;;;4.71
67966;BMP280;54749;47.850;9.002;2023-02-01T10:06:49;96844.03;;;4.71
67966;BMP280;54749;47.850;9.002;2023-02-01T10:15:05;96849.25;;;4.65
67966;BMP280;54749;47.850;9.002;2023-02-01T10:26:18;96834.47;;;4.80
67966;BMP280;54749;47.850;9.002;2023-02-01T10:29:09;96845.28;;;4.81
67966;BMP280;54749;47.850;9.002;2023-02-01T10:31:40;96830.56;;;4.73
67966;BMP280;54749;47.850;9.002;2023-02-01T10:34:38;96823.50;;;4.83
67966;BMP280;54749;47.850;9.002;2023-02-01T10:37:23;96824.91;;;5.09
67966;BMP280;54749;47.850;9.002;2023-02-01T10:39:53;96832.16;;;5.34
67966;BMP280;54749;47.850;9.002;2023-02-01T10:42:25;96825.75;;;5.47
67966;BMP280;54749;47.850;9.002;2023-02-01T10:44:55;96833.63;;;5.58
67966;BMP280;54749;47.850;9.002;2023-02-01T10:47:23;96852.59;;;5.63
67966;BMP280;54749;47.850;9.002;2023-02-01T10:50:12;96841.97;;;5.58
67966;BMP280;54749;47.850;9.002;2023-02-01T10:53:04;96848.91;;;5.52
67966;BMP280;54749;47.850;9.002;2023-02-01T10:55:38;96834.19;;;5.64
67966;BMP280;54749;47.850;9.002;2023-02-01T10:58:25;96818.38;;;5.99
67966;BMP280;54749;47.850;9.002;2023-02-01T11:00:58;96816.38;;;6.24
67966;BMP280;54749;47.850;9.002;2023-02-01T11:03:53;96806.22;;;7.59
67966;BMP280;54749;47.850;9.002;2023-02-01T11:09:15;96778.50;;;9.37
67966;BMP280;54749;47.850;9.002;2023-02-01T11:14:19;96784.50;;;8.35
67966;BMP280;54749;47.850;9.002;2023-02-01T11:16:48;96783.81;;;7.86
67966;BMP280;54749;47.850;9.002;2023-02-01T11:19:17;96770.50;;;9.02
67966;BMP280;54749;47.850;9.002;2023-02-01T11:21:49;96771.84;;;8.93
67966;BMP280;54749;47.850;9.002;2023-02-01T11:24:23;96755.44;;;8.58
67966;BMP280;54749;47.850;9.002;2023-02-01T11:26:55;96768.47;;;8.36
67966;BMP280;54749;47.850;9.002;2023-02-01T11:29:24;96761.59;;;8.24
67966;BMP280;54749;47.850;9.002;2023-02-01T11:31:57;96763.88;;;8.13
67966;BMP280;54749;47.850;9.002;2023-02-01T11:34:30;96771.31;;;8.45
67966;BMP280;54749;47.850;9.002;2023-02-01T11:37:02;96784.34;;;7.76
67966;BMP280;54749;47.850;9.002;2023-02-01T11:39:32;96792.53;;;7.16
67966;BMP280;54749;47.850;9.002;2023-02-01T11:42:14;96787.97;;;7.07
67966;BMP280;54749;47.850;9.002;2023-02-01T11:44:46;96789.47;;;6.95
67966;BMP280;54749;47.850;9.002;2023-02-01T11:47:28;96779.78;;;6.71
67966;BMP280;54749;47.850;9.002;2023-02-01T11:49:58;96788.25;;;6.68
67966;BMP280;54749;47.850;9.002;2023-02-01T11:57:43;96783.63;;;6.27
67966;BMP280;54749;47.850;9.002;2023-02-01T12:11:43;96756.34;;;6.19
67966;BMP280;54749;47.850;9.002;2023-02-01T12:22:44;96713.78;;;6.18
67966;BMP280;54749;47.850;9.002;2023-02-01T12:28:29;96702.13;;;6.33
67966;BMP280;54749;47.850;9.002;2023-02-01T12:33:59;96705.44;;;6.34
67966;BMP280;54749;47.850;9.002;2023-02-01T12:39:32;96702.00;;;6.53
67966;BMP280;54749;47.850;9.002;2023-02-01T12:42:31;96694.75;;;6.64
67966;BMP280;54749;47.850;9.002;2023-02-01T12:45:07;96694.75;;;6.64
67966;BMP280;54749;47.850;9.002;2023-02-01T12:48:04;96697.91;;;6.67
67966;BMP280;54749;47.850;9.002;2023-02-01T12:50:45;96700.09;;;6.58
67966;BMP280;54749;47.850;9.002;2023-02-01T12:53:23;96689.88;;;6.61
67966;BMP280;54749;47.850;9.002;2023-02-01T12:56:02;96694.16;;;6.59
67966;BMP280;54749;47.850;9.002;2023-02-01T12:58:51;96676.50;;;6.60
67966;BMP280;54749;47.850;9.002;2023-02-01T13:04:25;96677.13;;;6.80
67966;BMP280;54749;47.850;9.002;2023-02-01T13:07:10;96685.38;;;6.99
67966;BMP280;54749;47.850;9.002;2023-02-01T13:09:49;96679.47;;;6.99
67966;BMP280;54749;47.850;9.002;2023-02-01T13:12:29;96680.53;;;6.96
67966;BMP280;54749;47.850;9.002;2023-02-01T13:15:04;96678.47;;;6.87
67966;BMP280;54749;47.850;9.002;2023-02-01T13:17:33;96667.25;;;6.77
67966;BMP280;54749;47.850;9.002;2023-02-01T13:20:23;96672.13;;;6.80
67966;BMP280;54749;47.850;9.002;2023-02-01T13:22:57;96662.38;;;6.74
67966;BMP280;54749;47.850;9.002;2023-02-01T13:25:37;96664.31;;;6.69
67966;BMP280;54749;47.850;9.002;2023-02-01T13:28:11;96662.53;;;6.71
67966;BMP280;54749;47.850;9.002;2023-02-01T13:30:55;96674.75;;;6.62
67966;BMP280;54749;47.850;9.002;2023-02-01T13:36:52;96672.91;;;6.49
67966;BMP280;54749;47.850;9.002;2023-02-01T13:42:03;96687.22;;;6.47
67966;BMP280;54749;47.850;9.002;2023-02-01T13:44:36;96676.28;;;6.48
67966;BMP280;54749;47.850;9.002;2023-02-01T13:47:16;96674.22;;;6.56
67966;BMP280;54749;47.850;9.002;2023-02-01T13:49:47;96665.59;;;6.61
67966;BMP280;54749;47.850;9.002;2023-02-01T13:52:36;96681.22;;;6.82
67966;BMP280;54749;47.850;9.002;2023-02-01T13:57:41;96676.22;;;6.98
67966;BMP280;54749;47.850;9.002;2023-02-01T14:00:29;96680.13;;;7.03
67966;BMP280;54749;47.850;9.002;2023-02-01T14:13:25;96674.84;;;6.76
67966;BMP280;54749;47.850;9.002;2023-02-01T14:21:25;96685.13;;;6.88
67966;BMP280;54749;47.850;9.002;2023-02-01T14:24:12;96689.81;;;6.94
67966;BMP280;54749;47.850;9.002;2023-02-01T14:26:43;96693.69;;;6.84
67966;BMP280;54749;47.850;9.002;2023-02-01T14:34:36;96703.09;;;6.47
67966;BMP280;54749;47.850;9.002;2023-02-01T14:47:54;96705.63;;;5.96
67966;BMP280;54749;47.850;9.002;2023-02-01T14:50:29;96712.44;;;5.93
67966;BMP280;54749;47.850;9.002;2023-02-01T14:55:53;96697.56;;;5.90
67966;BMP280;54749;47.850;9.002;2023-02-01T14:58:50;96709.22;;;5.91
67966;BMP280;54749;47.850;9.002;2023-02-01T15:04:05;96715.47;;;5.83
67966;BMP280;54749;47.850;9.002;2023-02-01T15:09:23;96707.59;;;5.72
67966;BMP280;54749;47.850;9.002;2023-02-01T15:14:34;96711.34;;;5.82
67966;BMP280;54749;47.850;9.002;2023-02-01T15:17:02;96714.72;;;5.81
67966;BMP280;54749;47.850;9.002;2023-02-01T15:19:30;96706.53;;;5.77
67966;BMP280;54749;47.850;9.002;2023-02-01T15:22:00;96719.13;;;5.76
67966;BMP280;54749;47.850;9.002;2023-02-01T15:24:30;96731.06;;;5.71
67966;BMP280;54749;47.850;9.002;2023-02-01T15:27:04;96729.72;;;5.63
67966;BMP280;54749;47.850;9.002;2023-02-01T15:29:31;96732.53;;;5.57
67966;BMP280;54749;47.850;9.002;2023-02-01T15:32:02;96738.47;;;5.55
67966;BMP280;54749;47.850;9.002;2023-02-01T15:34:49;96745.31;;;5.51
67966;BMP280;54749;47.850;9.002;2023-02-01T15:37:20;96744.72;;;5.46
67966;BMP280;54749;47.850;9.002;2023-02-01T15:42:54;96760.91;;;5.40
67966;BMP280;54749;47.850;9.002;2023-02-01T15:45:27;96767.59;;;5.39
67966;BMP280;54749;47.850;9.002;2023-02-01T15:47:57;96767.84;;;5.33
67966;BMP280;54749;47.850;9.002;2023-02-01T15:50:26;96759.72;;;5.28
67966;BMP280;54749;47.850;9.002;2023-02-01T15:52:54;96774.91;;;5.25
67966;BMP280;54749;47.850;9.002;2023-02-01T15:55:37;96781.69;;;5.24
67966;BMP280;54749;47.850;9.002;2023-02-01T15:58:12;96780.16;;;5.20
67966;BMP280;54749;47.850;9.002;2023-02-01T16:00:45;96768.63;;;5.16
67966;BMP280;54749;47.850;9.002;2023-02-01T16:05:58;96787.19;;;5.12
67966;BMP280;54749;47.850;9.002;2023-02-01T16:08:29;96778.94;;;5.10
67966;BMP280;54749;47.850;9.002;2023-02-01T16:13:50;96779.03;;;5.07
67966;BMP280;54749;47.850;9.002;2023-02-01T16:16:17;96782.69;;;5.00
67966;BMP280;54749;47.850;9.002;2023-02-01T16:18:44;96791.84;;;5.01
67966;BMP280;54749;47.850;9.002;2023-02-01T16:21:12;96788.66;;;4.98
67966;BMP280;54749;47.850;9.002;2023-02-01T16:23:39;96794.44;;;4.98
67966;BMP280;54749;47.850;9.002;2023-02-01T16:26:06;96788.69;;;4.96
67966;BMP280;54749;47.850;9.002;2023-02-01T16:28:33;96792.75;;;4.99
67966;BMP280;54749;47.850;9.002;2023-02-01T16:31:01;96791.22;;;4.96
67966;BMP280;54749;47.850;9.002;2023-02-01T16:33:28;96797.03;;;4.97
67966;BMP280;54749;47.850;9.002;2023-02-01T16:35:56;96802.97;;;4.94
67966;BMP280;54749;47.850;9.002;2023-02-01T16:38:26;96798.09;;;4.91
67966;BMP280;54749;47.850;9.002;2023-02-01T16:40:53;96809.78;;;4.91
67966;BMP280;54749;47.850;9.002;2023-02-01T16:43:22;96799.03;;;4.89
67966;BMP280;54749;47.850;9.002;2023-02-01T16:45:52;96802.41;;;4.88
67966;BMP280;54749;47.850;9.002;2023-02-01T16:48:30;96794.22;;;4.85
67966;BMP280;54749;47.850;9.002;2023-02-01T16:51:03;96815.00;;;4.87
67966;BMP280;54749;47.850;9.002;2023-02-01T16:53:33;96804.09;;;4.88
67966;BMP280;54749;47.850;9.002;2023-02-01T16:56:38;96807.53;;;4.85